Time,TemperatureF,DewpointF,PressureIn,WindDirection,WindDirectionDegrees,WindSpeedMPH,WindSpeedGustMPH,Humidity,HourlyPrecipIn,Conditions,Clouds,dailyrainin,SoftwareType,DateUTC
2014-01-21 00:00:00,9.5,1.7,29.09,North,6,3.6,4.0,70,0.00,,,0.00,VWS V14.00,2014-01-21 05:00:00,
2014-01-21 00:01:00,9.5,1.7,29.09,North,7,3.6,4.0,70,0.00,,,0.00,VWS V14.00,2014-01-21 05:01:00,
2014-01-21 00:06:00,9.3,1.5,29.09,NNE,20,5.4,10.5,70,0.00,,,0.00,VWS V14.00,2014-01-21 05:06:00,
2014-01-21 00:11:00,9.1,1.4,29.09,North,357,3.1,11.0,70,0.00,,,0.00,VWS V14.00,2014-01-21 05:11:00,
2014-01-21 00:16:00,9.1,1.4,29.09,North,0,3.6,12.3,70,0.00,,,0.00,VWS V14.00,2014-01-21 05:16:00,
2014-01-21 00:21:00,8.8,1.0,29.09,NNE,16,3.1,12.3,70,0.00,,,0.00,VWS V14.00,2014-01-21 05:21:00,
2014-01-21 00:26:00,8.6,0.8,29.09,NNE,21,6.3,12.3,70,0.00,,,0.00,VWS V14.00,2014-01-21 05:26:00,
2014-01-21 00:30:00,8.6,0.8,29.09,NNE,14,3.6,12.3,70,0.00,,,0.00,VWS V14.00,2014-01-21 05:30:00,
2014-01-21 00:31:00,8.6,0.8,29.09,North,353,5.4,6.3,70,0.00,,,0.00,VWS V14.00,2014-01-21 05:31:00,
2014-01-21 00:36:00,8.4,0.7,29.09,North,353,3.1,8.7,70,0.00,,,0.00,VWS V14.00,2014-01-21 05:36:00,
2014-01-21 00:41:00,8.2,0.5,29.06,North,7,3.1,8.7,70,0.00,,,0.00,VWS V14.00,2014-01-21 05:41:00,
2014-01-21 00:46:00,8.2,0.5,29.06,NE,41,3.6,8.7,70,0.00,,,0.00,VWS V14.00,2014-01-21 05:46:00,
2014-01-21 00:51:00,8.1,0.3,29.06,NNE,28,3.1,8.7,70,0.00,,,0.00,VWS V14.00,2014-01-21 05:51:00,
2014-01-21 00:56:00,8.1,0.3,29.06,NNE,17,4.0,8.7,70,0.00,,,0.00,VWS V14.00,2014-01-21 05:56:00,
2014-01-21 00:58:00,7.9,0.1,29.06,NNE,23,5.4,10.1,70,0.00,,,0.00,VWS V14.00,2014-01-21 05:58:00,
2014-01-21 01:00:00,7.9,0.1,29.06,NNE,21,4.0,10.1,70,0.00,,,0.00,VWS V14.00,2014-01-21 06:00:00,
2014-01-21 01:03:00,7.9,0.1,29.06,NNE,27,4.0,9.2,70,0.00,,,0.00,VWS V14.00,2014-01-21 06:03:00,
2014-01-21 01:07:00,7.7,0.0,29.06,NNE,30,8.1,9.2,70,0.00,,,0.00,VWS V14.00,2014-01-21 06:07:00,
2014-01-21 01:13:00,7.5,-0.2,29.06,NNW,330,3.1,4.0,70,0.00,,,0.00,VWS V14.00,2014-01-21 06:13:00,
2014-01-21 01:18:00,7.3,-0.4,29.06,North,4,6.3,8.7,70,0.00,,,0.00,VWS V14.00,2014-01-21 06:18:00,
2014-01-21 01:23:00,7.3,-0.4,29.06,NNW,334,2.7,9.6,70,0.00,,,0.00,VWS V14.00,2014-01-21 06:23:00,
2014-01-21 01:28:00,7.2,-0.6,29.09,NW,310,3.6,9.6,70,0.00,,,0.00,VWS V14.00,2014-01-21 06:28:00,
2014-01-21 01:30:00,7.2,-0.6,29.09,NNW,343,3.6,9.6,70,0.00,,,0.00,VWS V14.00,2014-01-21 06:30:00,
2014-01-21 01:33:00,7.0,-0.7,29.09,North,11,6.3,6.3,70,0.00,,,0.00,VWS V14.00,2014-01-21 06:33:00,
2014-01-21 01:38:00,7.0,-0.7,29.09,NNE,19,6.3,8.7,70,0.00,,,0.00,VWS V14.00,2014-01-21 06:38:00,
2014-01-21 01:43:00,6.8,-0.9,29.06,North,10,5.4,10.1,70,0.00,,,0.00,VWS V14.00,2014-01-21 06:43:00,
2014-01-21 01:48:00,6.8,-0.9,29.06,North,7,4.0,10.1,70,0.00,,,0.00,VWS V14.00,2014-01-21 06:48:00,
2014-01-21 01:53:00,6.6,-1.1,29.06,NNW,340,3.1,10.5,70,0.00,,,0.00,VWS V14.00,2014-01-21 06:53:00,
2014-01-21 01:58:00,6.4,-1.2,29.09,North,1,5.4,11.0,70,0.00,,,0.00,VWS V14.00,2014-01-21 06:58:00,
2014-01-21 02:00:00,6.4,-1.2,29.09,NNE,22,8.1,12.3,70,0.00,,,0.00,VWS V14.00,2014-01-21 07:00:00,
2014-01-21 02:03:00,6.3,-1.4,29.09,NNW,337,8.7,10.5,70,0.00,,,0.00,VWS V14.00,2014-01-21 07:03:00,
2014-01-21 02:08:00,6.3,-1.4,29.09,NNE,24,8.7,10.5,70,0.00,,,0.00,VWS V14.00,2014-01-21 07:08:00,
2014-01-21 02:13:00,6.3,-1.4,29.09,North,10,3.6,10.5,70,0.00,,,0.00,VWS V14.00,2014-01-21 07:13:00,
2014-01-21 02:18:00,6.1,-1.6,29.09,NNE,20,6.3,10.5,70,0.00,,,0.00,VWS V14.00,2014-01-21 07:18:00,
2014-01-21 02:23:00,6.1,-1.6,29.09,NNE,22,7.6,10.5,70,0.00,,,0.00,VWS V14.00,2014-01-21 07:23:00,
2014-01-21 02:28:00,6.1,-1.6,29.09,NNE,13,10.1,11.0,70,0.00,,,0.00,VWS V14.00,2014-01-21 07:28:00,
2014-01-21 02:30:00,6.1,-1.6,29.09,NE,41,12.3,12.3,70,0.00,,,0.00,VWS V14.00,2014-01-21 07:30:00,
2014-01-21 02:33:00,6.1,-1.6,29.09,NE,46,5.8,12.3,70,0.00,,,0.00,VWS V14.00,2014-01-21 07:33:00,
2014-01-21 02:38:00,5.9,-1.8,29.09,North,7,2.2,12.3,70,0.00,,,0.00,VWS V14.00,2014-01-21 07:38:00,
2014-01-21 02:43:00,5.9,-1.8,29.09,North,1,5.8,12.3,70,0.00,,,0.00,VWS V14.00,2014-01-21 07:43:00,
2014-01-21 02:48:00,5.9,-1.8,29.09,NNE,31,5.4,12.3,70,0.00,,,0.00,VWS V14.00,2014-01-21 07:48:00,
2014-01-21 02:53:00,5.5,-2.1,29.09,NNE,20,6.3,14.5,70,0.00,,,0.00,VWS V14.00,2014-01-21 07:53:00,
2014-01-21 02:58:00,5.5,-2.1,29.09,ENE,59,4.0,14.5,70,0.00,,,0.00,VWS V14.00,2014-01-21 07:58:00,
2014-01-21 03:00:00,5.5,-2.1,29.09,North,1,7.6,14.5,70,0.00,,,0.00,VWS V14.00,2014-01-21 08:00:00,
2014-01-21 03:03:00,5.5,-2.1,29.09,NNE,29,3.6,13.2,70,0.00,,,0.00,VWS V14.00,2014-01-21 08:03:00,
2014-01-21 03:08:00,5.4,-2.3,29.09,NNE,17,4.9,13.2,70,0.00,,,0.00,VWS V14.00,2014-01-21 08:08:00,
2014-01-21 03:13:00,5.4,-2.3,29.09,North,349,3.6,13.2,70,0.00,,,0.00,VWS V14.00,2014-01-21 08:13:00,
2014-01-21 03:18:00,5.2,-2.5,29.09,NNW,339,3.6,13.2,70,0.00,,,0.00,VWS V14.00,2014-01-21 08:18:00,
2014-01-21 03:23:00,5.0,-2.6,29.09,NNE,17,2.2,13.2,70,0.00,,,0.00,VWS V14.00,2014-01-21 08:23:00,
2014-01-21 03:28:00,5.0,-2.6,29.09,NNW,343,4.9,13.2,70,0.00,,,0.00,VWS V14.00,2014-01-21 08:28:00,
2014-01-21 03:30:00,5.0,-2.6,29.09,North,5,5.8,13.2,70,0.00,,,0.00,VWS V14.00,2014-01-21 08:30:00,
2014-01-21 03:33:00,5.0,-2.6,29.09,North,8,8.1,8.1,70,0.00,,,0.00,VWS V14.00,2014-01-21 08:33:00,
2014-01-21 03:38:00,5.0,-2.6,29.09,NNW,342,4.9,11.0,70,0.00,,,0.00,VWS V14.00,2014-01-21 08:38:00,
2014-01-21 03:43:00,4.8,-2.8,29.09,ENE,57,6.3,12.8,70,0.00,,,0.00,VWS V14.00,2014-01-21 08:43:00,
2014-01-21 03:48:00,4.8,-2.8,29.09,NW,308,3.1,12.8,70,0.00,,,0.00,VWS V14.00,2014-01-21 08:48:00,
2014-01-21 03:53:00,4.8,-2.8,29.09,NNE,25,2.2,12.8,70,0.00,,,0.00,VWS V14.00,2014-01-21 08:53:00,
2014-01-21 03:58:00,4.6,-3.0,29.09,NNE,30,4.0,12.8,70,0.00,,,0.00,VWS V14.00,2014-01-21 08:58:00,
2014-01-21 04:00:00,4.8,-2.8,29.09,NE,43,7.6,12.8,70,0.00,,,0.00,VWS V14.00,2014-01-21 09:00:00,
2014-01-21 04:03:00,4.6,-3.0,29.09,North,5,5.8,8.3,70,0.00,,,0.00,VWS V14.00,2014-01-21 09:03:00,
2014-01-21 04:08:00,4.6,-3.0,29.09,East,87,0.0,8.3,70,0.00,,,0.00,VWS V14.00,2014-01-21 09:08:00,
2014-01-21 04:13:00,4.5,-3.2,29.09,NNW,343,2.7,8.3,70,0.00,,,0.00,VWS V14.00,2014-01-21 09:13:00,
2014-01-21 04:18:00,4.5,-3.2,29.09,WNW,299,3.6,8.3,70,0.00,,,0.00,VWS V14.00,2014-01-21 09:18:00,
2014-01-21 04:23:00,4.5,-3.2,29.09,NNE,24,5.8,8.3,70,0.00,,,0.00,VWS V14.00,2014-01-21 09:23:00,
2014-01-21 04:28:00,4.5,-3.2,29.09,NE,38,8.3,8.3,70,0.00,,,0.00,VWS V14.00,2014-01-21 09:28:00,
2014-01-21 04:30:00,4.5,-3.2,29.09,North,357,7.6,9.2,70,0.00,,,0.00,VWS V14.00,2014-01-21 09:30:00,
2014-01-21 04:33:00,4.5,-3.2,29.09,NNW,330,5.8,8.7,70,0.00,,,0.00,VWS V14.00,2014-01-21 09:33:00,
2014-01-21 04:38:00,4.5,-3.2,29.09,North,4,4.0,11.0,70,0.00,,,0.00,VWS V14.00,2014-01-21 09:38:00,
2014-01-21 04:43:00,4.3,-3.3,29.09,North,357,8.1,11.0,70,0.00,,,0.00,VWS V14.00,2014-01-21 09:43:00,
2014-01-21 04:48:00,4.3,-3.3,29.09,NNE,25,4.0,11.0,70,0.00,,,0.00,VWS V14.00,2014-01-21 09:48:00,
2014-01-21 04:53:00,4.1,-3.5,29.09,NNW,342,5.4,11.0,70,0.00,,,0.00,VWS V14.00,2014-01-21 09:53:00,
2014-01-21 04:58:00,3.7,-3.8,29.09,North,3,4.0,11.0,70,0.00,,,0.00,VWS V14.00,2014-01-21 09:58:00,
2014-01-21 05:00:00,3.7,-3.8,29.09,NE,45,8.1,11.0,70,0.00,,,0.00,VWS V14.00,2014-01-21 10:00:00,
2014-01-21 05:03:00,3.7,-3.8,29.09,NNW,328,4.0,8.7,70,0.00,,,0.00,VWS V14.00,2014-01-21 10:03:00,
2014-01-21 05:08:00,3.6,-4.0,29.09,North,8,4.0,9.6,70,0.00,,,0.00,VWS V14.00,2014-01-21 10:08:00,
2014-01-21 05:13:00,3.2,-4.4,29.09,NNW,330,4.0,9.6,70,0.00,,,0.00,VWS V14.00,2014-01-21 10:13:00,
2014-01-21 05:18:00,3.2,-4.4,29.09,NW,308,0.0,9.6,70,0.00,,,0.00,VWS V14.00,2014-01-21 10:18:00,
2014-01-21 05:23:00,2.8,-4.7,29.09,NNW,341,4.0,9.6,70,0.00,,,0.00,VWS V14.00,2014-01-21 10:23:00,
2014-01-21 05:28:00,2.8,-4.7,29.09,NNW,332,0.0,9.6,70,0.00,,,0.00,VWS V14.00,2014-01-21 10:28:00,
2014-01-21 05:30:00,2.7,-4.9,29.09,NE,53,4.0,9.6,70,0.00,,,0.00,VWS V14.00,2014-01-21 10:30:00,
2014-01-21 05:33:00,2.5,-5.1,29.09,North,357,2.7,7.2,70,0.00,,,0.00,VWS V14.00,2014-01-21 10:33:00,
2014-01-21 05:38:00,2.5,-5.1,29.09,NNW,333,3.6,7.2,70,0.00,,,0.00,VWS V14.00,2014-01-21 10:38:00,
2014-01-21 05:43:00,2.3,-5.2,29.09,North,357,4.9,8.7,70,0.00,,,0.00,VWS V14.00,2014-01-21 10:43:00,
2014-01-21 05:48:00,2.1,-5.4,29.09,NNE,14,2.7,8.7,70,0.00,,,0.00,VWS V14.00,2014-01-21 10:48:00,
2014-01-21 05:53:00,1.9,-5.6,29.09,NE,39,4.0,8.7,70,0.00,,,0.00,VWS V14.00,2014-01-21 10:53:00,
2014-01-21 05:58:00,1.6,-5.9,29.09,WSW,250,0.0,8.7,70,0.00,,,0.00,VWS V14.00,2014-01-21 10:58:00,
2014-01-21 06:00:00,1.6,-5.9,29.09,NE,52,4.0,8.7,70,0.00,,,0.00,VWS V14.00,2014-01-21 11:00:00,
2014-01-21 06:03:00,1.8,-5.8,29.09,NNW,334,3.6,6.3,70,0.00,,,0.00,VWS V14.00,2014-01-21 11:03:00,
2014-01-21 06:08:00,1.6,-5.9,29.09,North,357,2.7,6.3,70,0.00,,,0.00,VWS V14.00,2014-01-21 11:08:00,
2014-01-21 06:13:00,1.6,-5.9,29.12,North,350,5.8,6.3,70,0.00,,,0.00,VWS V14.00,2014-01-21 11:13:00,
2014-01-21 06:18:00,1.6,-5.9,29.12,NW,325,2.7,6.3,70,0.00,,,0.00,VWS V14.00,2014-01-21 11:18:00,
2014-01-21 06:23:00,1.2,-6.3,29.12,West,265,4.9,6.3,70,0.00,,,0.00,VWS V14.00,2014-01-21 11:23:00,
2014-01-21 06:28:00,1.4,-6.1,29.12,North,3,5.8,8.1,70,0.00,,,0.00,VWS V14.00,2014-01-21 11:28:00,
2014-01-21 06:30:00,1.2,-6.3,29.12,NNW,330,0.0,8.1,70,0.00,,,0.00,VWS V14.00,2014-01-21 11:30:00,
2014-01-21 06:33:00,1.2,-6.3,29.12,NNE,26,0.0,4.0,70,0.00,,,0.00,VWS V14.00,2014-01-21 11:33:00,
2014-01-21 06:38:00,0.9,-6.6,29.12,NNE,25,2.2,7.2,70,0.00,,,0.00,VWS V14.00,2014-01-21 11:38:00,
2014-01-21 06:43:00,0.7,-6.8,29.12,NNE,32,0.0,8.3,70,0.00,,,0.00,VWS V14.00,2014-01-21 11:43:00,
2014-01-21 06:48:00,1.0,-6.4,29.12,North,10,2.7,12.3,70,0.00,,,0.00,VWS V14.00,2014-01-21 11:48:00,
2014-01-21 06:53:00,0.7,-6.8,29.12,NNE,22,3.6,12.3,70,0.00,,,0.00,VWS V14.00,2014-01-21 11:53:00,
2014-01-21 06:58:00,0.7,-6.8,29.12,NNW,333,3.1,12.3,70,0.00,,,0.00,VWS V14.00,2014-01-21 11:58:00,
2014-01-21 07:00:00,0.7,-6.8,29.12,NNE,12,2.7,12.3,70,0.00,,,0.00,VWS V14.00,2014-01-21 12:00:00,
2014-01-21 07:03:00,0.3,-7.1,29.12,NW,320,3.6,5.4,70,0.00,,,0.00,VWS V14.00,2014-01-21 12:03:00,
2014-01-21 07:08:00,0.0,-7.5,29.12,NNE,33,6.3,6.3,70,0.00,,,0.00,VWS V14.00,2014-01-21 12:08:00,
2014-01-21 07:13:00,0.3,-7.1,29.12,NNW,329,3.1,6.3,70,0.00,,,0.00,VWS V14.00,2014-01-21 12:13:00,
2014-01-21 07:18:00,0.1,-7.3,29.12,NNW,334,3.6,6.3,70,0.00,,,0.00,VWS V14.00,2014-01-21 12:18:00,
2014-01-21 07:23:00,0.1,-7.3,29.12,North,0,0.0,8.7,70,0.00,,,0.00,VWS V14.00,2014-01-21 12:23:00,
2014-01-21 07:28:00,0.0,-7.5,29.15,NNE,23,3.6,8.7,70,0.00,,,0.00,VWS V14.00,2014-01-21 12:28:00,
2014-01-21 07:30:00,0.0,-7.5,29.15,North,353,0.0,8.7,70,0.00,,,0.00,VWS V14.00,2014-01-21 12:30:00,
2014-01-21 07:33:00,0.0,-7.5,29.15,NNW,345,2.7,6.3,70,0.00,,,0.00,VWS V14.00,2014-01-21 12:33:00,
2014-01-21 07:38:00,-0.4,-7.8,29.15,NNW,341,2.7,6.3,70,0.00,,,0.00,VWS V14.00,2014-01-21 12:38:00,
2014-01-21 07:43:00,0.0,-7.5,29.15,NNE,13,4.9,8.3,70,0.00,,,0.00,VWS V14.00,2014-01-21 12:43:00,
2014-01-21 07:48:00,-0.6,-8.0,29.15,NNE,13,4.0,8.3,70,0.00,,,0.00,VWS V14.00,2014-01-21 12:48:00,
2014-01-21 07:53:00,-0.4,-7.8,29.15,North,357,2.7,8.3,70,0.00,,,0.00,VWS V14.00,2014-01-21 12:53:00,
2014-01-21 07:58:00,-0.8,-8.2,29.15,North,5,5.8,8.3,70,0.00,,,0.00,VWS V14.00,2014-01-21 12:58:00,
2014-01-21 08:00:00,-0.8,-8.2,29.15,North,2,0.0,8.3,70,0.00,,,0.00,VWS V14.00,2014-01-21 13:00:00,
2014-01-21 08:03:00,-0.8,-8.2,29.15,North,357,2.7,4.9,70,0.00,,,0.00,VWS V14.00,2014-01-21 13:03:00,
2014-01-21 08:08:00,-0.8,-8.2,29.15,North,353,0.0,5.8,70,0.00,,,0.00,VWS V14.00,2014-01-21 13:08:00,
2014-01-21 08:13:00,-0.9,-8.4,29.15,NNW,333,2.7,6.3,70,0.00,,,0.00,VWS V14.00,2014-01-21 13:13:00,
2014-01-21 08:18:00,-0.9,-8.4,29.15,NNW,335,0.0,6.3,70,0.00,,,0.00,VWS V14.00,2014-01-21 13:18:00,
2014-01-21 08:23:00,-0.6,-8.0,29.15,NNE,15,4.5,6.3,70,0.00,,,0.00,VWS V14.00,2014-01-21 13:23:00,
2014-01-21 08:28:00,-0.6,-8.0,29.15,NNE,25,2.7,6.3,70,0.00,,,0.00,VWS V14.00,2014-01-21 13:28:00,
2014-01-21 08:30:00,-0.6,-8.0,29.15,NNW,339,0.0,6.3,70,0.00,,,0.00,VWS V14.00,2014-01-21 13:30:00,
2014-01-21 08:33:00,-0.2,-7.7,29.15,North,357,3.6,7.6,70,0.00,,,0.00,VWS V14.00,2014-01-21 13:33:00,
2014-01-21 08:39:00,-0.2,-7.7,29.15,NNE,28,4.9,9.2,70,0.00,,,0.00,VWS V14.00,2014-01-21 13:39:00,
2014-01-21 08:44:00,-0.4,-7.8,29.18,NNE,28,2.7,9.2,70,0.00,,,0.00,VWS V14.00,2014-01-21 13:44:00,
2014-01-21 08:49:00,-0.4,-7.8,29.18,NE,47,3.1,9.2,70,0.00,,,0.00,VWS V14.00,2014-01-21 13:49:00,
2014-01-21 08:54:00,-0.4,-7.8,29.18,North,0,0.0,9.2,70,0.00,,,0.00,VWS V14.00,2014-01-21 13:54:00,
2014-01-21 08:59:00,-0.2,-7.7,29.18,NNW,341,2.7,9.2,70,0.00,,,0.00,VWS V14.00,2014-01-21 13:59:00,
2014-01-21 09:00:00,-0.2,-7.7,29.18,North,1,3.6,9.2,70,0.00,,,0.00,VWS V14.00,2014-01-21 14:00:00,
2014-01-21 09:04:00,0.3,-7.1,29.18,West,273,8.3,8.7,70,0.00,,,0.00,VWS V14.00,2014-01-21 14:04:00,
2014-01-21 09:09:00,1.0,-6.4,29.18,NNW,336,5.4,8.7,70,0.00,,,0.00,VWS V14.00,2014-01-21 14:09:00,
2014-01-21 09:14:00,1.4,-6.1,29.18,NE,42,4.0,9.6,70,0.00,,,0.00,VWS V14.00,2014-01-21 14:14:00,
2014-01-21 09:19:00,1.6,-5.9,29.18,NNW,340,3.1,10.1,70,0.00,,,0.00,VWS V14.00,2014-01-21 14:19:00,
2014-01-21 09:24:00,1.9,-5.6,29.18,NW,315,3.1,10.1,70,0.00,,,0.00,VWS V14.00,2014-01-21 14:24:00,
2014-01-21 09:29:00,2.3,-5.2,29.18,North,357,3.6,10.1,70,0.00,,,0.00,VWS V14.00,2014-01-21 14:29:00,
2014-01-21 09:30:00,2.5,-5.1,29.18,ENE,62,2.2,10.1,70,0.00,,,0.00,VWS V14.00,2014-01-21 14:30:00,
2014-01-21 09:34:00,2.8,-4.7,29.18,NNE,19,6.7,8.1,70,0.00,,,0.00,VWS V14.00,2014-01-21 14:34:00,
2014-01-21 09:39:00,3.2,-4.4,29.18,NNW,341,2.2,8.1,70,0.00,,,0.00,VWS V14.00,2014-01-21 14:39:00,
2014-01-21 09:44:00,3.4,-4.2,29.18,NNE,21,6.7,8.1,70,0.00,,,0.00,VWS V14.00,2014-01-21 14:44:00,
2014-01-21 09:49:00,3.7,-3.8,29.18,NNW,337,3.1,8.3,70,0.00,,,0.00,VWS V14.00,2014-01-21 14:49:00,
2014-01-21 09:54:00,4.1,-3.5,29.18,ENE,75,5.8,8.3,70,0.00,,,0.00,VWS V14.00,2014-01-21 14:54:00,
2014-01-21 09:59:00,4.1,-3.5,29.18,NNE,27,8.3,12.8,70,0.00,,,0.00,VWS V14.00,2014-01-21 14:59:00,
2014-01-21 10:00:00,4.5,-3.2,29.18,North,3,3.6,12.8,70,0.00,,,0.00,VWS V14.00,2014-01-21 15:00:00,
2014-01-21 10:04:00,5.0,-2.6,29.18,NE,51,13.2,13.2,70,0.00,,,0.00,VWS V14.00,2014-01-21 15:04:00,
2014-01-21 10:09:00,5.0,-2.6,29.18,NE,46,4.9,13.2,70,0.00,,,0.00,VWS V14.00,2014-01-21 15:09:00,
2014-01-21 10:14:00,5.4,-2.3,29.18,NE,40,8.3,13.2,70,0.00,,,0.00,VWS V14.00,2014-01-21 15:14:00,
2014-01-21 10:19:00,5.4,-2.3,29.18,ENE,59,4.0,13.2,70,0.00,,,0.00,VWS V14.00,2014-01-21 15:19:00,
2014-01-21 10:24:00,5.5,-2.1,29.18,North,357,4.0,13.2,70,0.00,,,0.00,VWS V14.00,2014-01-21 15:24:00,
2014-01-21 10:29:00,6.4,-1.2,29.18,NNE,27,5.4,13.2,70,0.00,,,0.00,VWS V14.00,2014-01-21 15:29:00,
2014-01-21 10:30:00,6.4,-1.2,29.18,North,353,5.4,13.2,70,0.00,,,0.00,VWS V14.00,2014-01-21 15:30:00,
2014-01-21 10:34:00,6.8,-0.9,29.18,NNW,334,5.4,7.6,70,0.00,,,0.00,VWS V14.00,2014-01-21 15:34:00,
2014-01-21 10:39:00,6.1,-1.6,29.18,NW,320,2.7,10.1,70,0.00,,,0.00,VWS V14.00,2014-01-21 15:39:00,
2014-01-21 10:44:00,6.4,-1.2,29.18,NNW,330,3.6,10.1,70,0.00,,,0.00,VWS V14.00,2014-01-21 15:44:00,
2014-01-21 10:49:00,6.6,-1.1,29.18,NW,319,7.6,10.1,70,0.00,,,0.00,VWS V14.00,2014-01-21 15:49:00,
2014-01-21 10:54:00,7.2,-0.6,29.18,NE,54,2.7,10.1,70,0.00,,,0.00,VWS V14.00,2014-01-21 15:54:00,
2014-01-21 10:59:00,7.3,-0.4,29.21,North,9,6.3,10.1,70,0.00,,,0.00,VWS V14.00,2014-01-21 15:59:00,
2014-01-21 11:00:00,7.0,-0.7,29.20,NNE,16,4.0,12.3,70,0.00,,,0.00,VWS V14.00,2014-01-21 16:00:00,
2014-01-21 11:04:00,7.0,-0.7,29.21,NNE,20,5.4,12.8,70,0.00,,,0.00,VWS V14.00,2014-01-21 16:04:00,
2014-01-21 11:09:00,7.3,-0.4,29.21,NE,41,7.6,12.8,70,0.00,,,0.00,VWS V14.00,2014-01-21 16:09:00,
2014-01-21 11:14:00,8.4,0.7,29.21,NW,326,0.0,12.8,70,0.00,,,0.00,VWS V14.00,2014-01-21 16:14:00,
2014-01-21 11:19:00,8.8,1.0,29.21,NNW,341,5.4,12.8,70,0.00,,,0.00,VWS V14.00,2014-01-21 16:19:00,
2014-01-21 11:24:00,8.6,0.8,29.21,North,9,4.0,12.8,70,0.00,,,0.00,VWS V14.00,2014-01-21 16:24:00,
2014-01-21 11:29:00,8.4,0.7,29.21,North,10,5.8,12.8,70,0.00,,,0.00,VWS V14.00,2014-01-21 16:29:00,
2014-01-21 11:30:00,8.6,0.8,29.20,NNE,22,4.9,12.8,70,0.00,,,0.00,VWS V14.00,2014-01-21 16:30:00,
2014-01-21 11:34:00,9.3,1.5,29.21,WNW,287,5.4,6.7,70,0.00,,,0.00,VWS V14.00,2014-01-21 16:34:00,
2014-01-21 11:39:00,9.1,1.4,29.21,North,5,8.7,13.2,70,0.00,,,0.00,VWS V14.00,2014-01-21 16:39:00,
2014-01-21 11:44:00,9.7,1.9,29.18,NNW,348,4.9,13.2,70,0.00,,,0.00,VWS V14.00,2014-01-21 16:44:00,
2014-01-21 11:49:00,10.2,2.4,29.18,NNE,29,5.4,13.2,70,0.00,,,0.00,VWS V14.00,2014-01-21 16:49:00,
2014-01-21 11:54:00,10.2,2.4,29.18,NNE,27,10.1,13.2,70,0.00,,,0.00,VWS V14.00,2014-01-21 16:54:00,
2014-01-21 11:59:00,10.4,2.6,29.18,North,357,3.6,13.2,70,0.00,,,0.00,VWS V14.00,2014-01-21 16:59:00,
2014-01-21 12:00:00,10.8,2.9,29.18,North,353,3.1,13.2,70,0.00,,,0.00,VWS V14.00,2014-01-21 17:00:00,
2014-01-21 12:04:00,10.4,2.6,29.18,NNE,28,5.8,10.5,70,0.00,,,0.00,VWS V14.00,2014-01-21 17:04:00,
2014-01-21 12:09:00,10.6,2.7,29.18,NNE,28,5.8,10.5,70,0.00,,,0.00,VWS V14.00,2014-01-21 17:09:00,
2014-01-21 12:14:00,10.8,2.9,29.18,NNW,343,3.6,10.5,70,0.00,,,0.00,VWS V14.00,2014-01-21 17:14:00,
2014-01-21 12:19:00,11.5,3.6,29.18,ENE,71,5.4,11.4,70,0.00,,,0.00,VWS V14.00,2014-01-21 17:19:00,
2014-01-21 12:24:00,11.7,3.8,29.18,North,10,5.4,11.4,70,0.00,,,0.00,VWS V14.00,2014-01-21 17:24:00,
2014-01-21 12:29:00,12.6,4.7,29.18,NNW,343,3.1,11.4,70,0.00,,,0.00,VWS V14.00,2014-01-21 17:29:00,
2014-01-21 12:30:00,12.6,4.7,29.18,WNW,284,3.1,11.4,70,0.00,,,0.00,VWS V14.00,2014-01-21 17:30:00,
2014-01-21 12:34:00,12.9,5.0,29.18,WNW,299,2.2,7.2,70,0.00,,,0.00,VWS V14.00,2014-01-21 17:34:00,
2014-01-21 12:39:00,12.9,5.0,29.18,North,353,3.1,8.3,70,0.00,,,0.00,VWS V14.00,2014-01-21 17:39:00,
2014-01-21 12:44:00,12.4,4.5,29.18,NNE,13,2.7,11.4,70,0.00,,,0.00,VWS V14.00,2014-01-21 17:44:00,
2014-01-21 12:49:00,12.6,4.7,29.18,NNW,340,3.6,11.9,70,0.00,,,0.00,VWS V14.00,2014-01-21 17:49:00,
2014-01-21 12:54:00,13.3,5.3,29.18,NE,34,10.1,11.9,70,0.00,,,0.00,VWS V14.00,2014-01-21 17:54:00,
2014-01-21 12:59:00,12.4,4.5,29.18,NNE,24,10.5,11.9,70,0.00,,,0.00,VWS V14.00,2014-01-21 17:59:00,
2014-01-21 13:00:00,12.2,4.3,29.18,NNW,343,8.1,12.3,70,0.00,,,0.00,VWS V14.00,2014-01-21 18:00:00,
2014-01-21 13:04:00,11.8,4.0,29.18,NNE,19,5.4,12.8,70,0.00,,,0.00,VWS V14.00,2014-01-21 18:04:00,
2014-01-21 13:09:00,12.6,4.7,29.18,North,353,5.4,13.2,70,0.00,,,0.00,VWS V14.00,2014-01-21 18:09:00,
2014-01-21 13:14:00,12.4,4.5,29.18,NE,44,3.1,13.2,70,0.00,,,0.00,VWS V14.00,2014-01-21 18:14:00,
2014-01-21 13:19:00,13.6,5.7,29.18,NNE,17,4.0,13.2,70,0.00,,,0.00,VWS V14.00,2014-01-21 18:19:00,
2014-01-21 13:24:00,13.5,5.5,29.18,NNE,23,4.9,13.2,70,0.00,,,0.00,VWS V14.00,2014-01-21 18:24:00,
2014-01-21 13:29:00,13.6,5.7,29.15,North,3,4.0,13.2,70,0.00,,,0.00,VWS V14.00,2014-01-21 18:29:00,
2014-01-21 13:30:00,13.6,5.7,29.15,North,357,7.2,13.2,70,0.00,,,0.00,VWS V14.00,2014-01-21 18:30:00,
2014-01-21 13:34:00,13.3,5.3,29.15,NNW,341,0.0,10.1,70,0.00,,,0.00,VWS V14.00,2014-01-21 18:34:00,
2014-01-21 13:39:00,12.6,-4.3,29.15,NNE,26,6.3,10.1,46,0.00,,,0.00,VWS V14.00,2014-01-21 18:39:00,
2014-01-21 13:44:00,14.2,-3.2,29.15,NE,45,4.9,10.1,45,0.00,,,0.00,VWS V14.00,2014-01-21 18:44:00,
2014-01-21 13:49:00,13.8,-3.6,29.15,North,11,8.3,10.1,45,0.00,,,0.00,VWS V14.00,2014-01-21 18:49:00,
2014-01-21 13:54:00,13.3,-4.1,29.15,NW,307,2.7,10.1,45,0.00,,,0.00,VWS V14.00,2014-01-21 18:54:00,
2014-01-21 13:59:00,14.2,-3.2,29.15,NNW,344,4.9,10.1,45,0.00,,,0.00,VWS V14.00,2014-01-21 18:59:00,
2014-01-21 14:00:00,14.2,-3.2,29.15,NNE,21,5.8,10.1,45,0.00,,,0.00,VWS V14.00,2014-01-21 19:00:00,
2014-01-21 14:04:00,13.5,-3.9,29.15,NNW,334,5.8,7.6,45,0.00,,,0.00,VWS V14.00,2014-01-21 19:04:00,
2014-01-21 14:09:00,13.5,-3.9,29.15,NNE,25,7.6,8.1,45,0.00,,,0.00,VWS V14.00,2014-01-21 19:09:00,
2014-01-21 14:14:00,12.4,-4.9,29.15,NNE,25,6.3,8.3,45,0.00,,,0.00,VWS V14.00,2014-01-21 19:14:00,
2014-01-21 14:19:00,12.2,-5.1,29.15,NE,38,4.0,8.7,45,0.00,,,0.00,VWS V14.00,2014-01-21 19:19:00,
2014-01-21 14:24:00,12.4,-4.9,29.15,NW,310,2.7,8.7,45,0.00,,,0.00,VWS V14.00,2014-01-21 19:24:00,
2014-01-21 14:29:00,12.2,-5.1,29.15,North,357,3.6,8.7,45,0.00,,,0.00,VWS V14.00,2014-01-21 19:29:00,
2014-01-21 14:30:00,12.6,-4.7,29.15,North,357,3.1,8.7,45,0.00,,,0.00,VWS V14.00,2014-01-21 19:30:00,
2014-01-21 14:34:00,12.7,-4.6,29.15,North,6,0.0,6.3,45,0.00,,,0.00,VWS V14.00,2014-01-21 19:34:00,
2014-01-21 14:39:00,13.3,-4.1,29.15,NNW,334,5.4,8.7,45,0.00,,,0.00,VWS V14.00,2014-01-21 19:39:00,
2014-01-21 14:44:00,12.7,-4.6,29.15,NNW,335,5.4,8.7,45,0.00,,,0.00,VWS V14.00,2014-01-21 19:44:00,
2014-01-21 14:49:00,12.6,-4.7,29.15,North,357,5.8,8.7,45,0.00,,,0.00,VWS V14.00,2014-01-21 19:49:00,
2014-01-21 14:54:00,12.0,-5.2,29.15,NNE,28,7.6,10.5,45,0.00,,,0.00,VWS V14.00,2014-01-21 19:54:00,
2014-01-21 14:59:00,12.0,-5.2,29.15,NW,316,5.4,10.5,45,0.00,,,0.00,VWS V14.00,2014-01-21 19:59:00,
2014-01-21 15:00:00,11.8,-5.4,29.15,NW,325,5.4,10.5,45,0.00,,,0.00,VWS V14.00,2014-01-21 20:00:00,
2014-01-21 15:04:00,11.7,-5.6,29.15,NE,45,4.9,6.3,45,0.00,,,0.00,VWS V14.00,2014-01-21 20:04:00,
2014-01-21 15:09:00,11.7,-5.6,29.15,NNW,327,2.7,8.3,45,0.00,,,0.00,VWS V14.00,2014-01-21 20:09:00,
2014-01-21 15:14:00,11.1,-6.1,29.15,NNE,13,2.7,8.3,45,0.00,,,0.00,VWS V14.00,2014-01-21 20:14:00,
2014-01-21 15:19:00,10.8,-6.4,29.15,NE,41,6.3,8.3,45,0.00,,,0.00,VWS V14.00,2014-01-21 20:19:00,
2014-01-21 15:24:00,10.2,-6.9,29.15,ESE,116,8.1,12.3,45,0.00,,,0.00,VWS V14.00,2014-01-21 20:24:00,
2014-01-21 15:29:00,10.2,-6.9,29.15,West,277,0.0,12.3,45,0.00,,,0.00,VWS V14.00,2014-01-21 20:29:00,
2014-01-21 15:30:00,10.4,-6.7,29.15,North,353,0.0,12.3,45,0.00,,,0.00,VWS V14.00,2014-01-21 20:30:00,
2014-01-21 15:34:00,10.2,-6.9,29.15,NNW,333,3.6,6.3,45,0.00,,,0.00,VWS V14.00,2014-01-21 20:34:00,
2014-01-21 15:39:00,9.9,-7.2,29.15,North,9,0.0,6.3,45,0.00,,,0.00,VWS V14.00,2014-01-21 20:39:00,
2014-01-21 15:44:00,9.7,-7.4,29.15,NNW,338,6.3,6.3,45,0.00,,,0.00,VWS V14.00,2014-01-21 20:44:00,
2014-01-21 15:49:00,9.5,-7.6,29.15,North,353,0.0,6.3,45,0.00,,,0.00,VWS V14.00,2014-01-21 20:49:00,
2014-01-21 15:54:00,8.8,-8.2,29.15,WNW,292,3.6,8.1,45,0.00,,,0.00,VWS V14.00,2014-01-21 20:54:00,
2014-01-21 15:59:00,8.6,-8.4,29.15,NNE,12,3.1,8.1,45,0.00,,,0.00,VWS V14.00,2014-01-21 20:59:00,
2014-01-21 16:00:00,8.6,-8.4,29.15,NNE,24,3.1,8.1,45,0.00,,,0.00,VWS V14.00,2014-01-21 21:00:00,
2014-01-21 16:04:00,8.6,-8.4,29.15,NNW,331,4.0,4.9,45,0.00,,,0.00,VWS V14.00,2014-01-21 21:04:00,
2014-01-21 16:09:00,8.4,-8.5,29.15,North,6,0.0,6.3,45,0.00,,,0.00,VWS V14.00,2014-01-21 21:09:00,
2014-01-21 16:14:00,8.2,-8.7,29.18,NNE,17,3.6,8.1,45,0.00,,,0.00,VWS V14.00,2014-01-21 21:14:00,
2014-01-21 16:19:00,8.1,-8.9,29.18,WNW,300,2.7,8.1,45,0.00,,,0.00,VWS V14.00,2014-01-21 21:19:00,
2014-01-21 16:24:00,7.7,-9.2,29.18,WSW,257,3.6,8.1,45,0.00,,,0.00,VWS V14.00,2014-01-21 21:24:00,
2014-01-21 16:29:00,7.5,-9.4,29.18,North,357,6.3,8.1,45,0.00,,,0.00,VWS V14.00,2014-01-21 21:29:00,
2014-01-21 16:30:00,7.5,-9.4,29.18,NW,325,8.1,8.1,45,0.00,,,0.00,VWS V14.00,2014-01-21 21:30:00,
2014-01-21 16:34:00,7.3,-9.5,29.18,NNE,26,4.9,8.1,45,0.00,,,0.00,VWS V14.00,2014-01-21 21:34:00,
2014-01-21 16:39:00,7.0,-9.9,29.18,West,275,2.7,8.1,45,0.00,,,0.00,VWS V14.00,2014-01-21 21:39:00,
2014-01-21 16:44:00,6.8,-10.0,29.18,NNW,340,0.0,8.1,45,0.00,,,0.00,VWS V14.00,2014-01-21 21:44:00,
2014-01-21 16:50:00,6.4,-10.4,29.18,NNE,31,0.0,8.1,45,0.00,,,0.00,VWS V14.00,2014-01-21 21:50:00,
2014-01-21 16:55:00,6.3,-10.5,29.18,West,271,4.0,8.1,45,0.00,,,0.00,VWS V14.00,2014-01-21 21:55:00,
2014-01-21 17:00:00,6.1,-10.7,29.18,WNW,301,0.0,8.1,45,0.00,,,0.00,VWS V14.00,2014-01-21 22:00:00,
2014-01-21 17:05:00,5.9,-10.9,29.18,North,0,2.2,4.9,45,0.00,,,0.00,VWS V14.00,2014-01-21 22:05:00,
2014-01-21 17:10:00,5.5,-11.2,29.18,NNW,344,0.0,5.4,45,0.00,,,0.00,VWS V14.00,2014-01-21 22:10:00,
2014-01-21 17:15:00,5.4,-11.4,29.18,NNW,343,2.7,5.4,45,0.00,,,0.00,VWS V14.00,2014-01-21 22:15:00,
2014-01-21 17:20:00,5.0,-11.7,29.18,NW,304,3.1,6.3,45,0.00,,,0.00,VWS V14.00,2014-01-21 22:20:00,
2014-01-21 17:25:00,4.8,-11.9,29.18,NNW,333,0.0,6.3,45,0.00,,,0.00,VWS V14.00,2014-01-21 22:25:00,
2014-01-21 17:30:00,4.5,-12.2,29.18,NNW,343,2.7,6.3,45,0.00,,,0.00,VWS V14.00,2014-01-21 22:30:00,
2014-01-21 17:35:00,4.1,-12.5,29.18,NW,321,0.0,5.4,45,0.00,,,0.00,VWS V14.00,2014-01-21 22:35:00,
2014-01-21 17:40:00,3.7,-12.9,29.18,NW,320,0.0,5.4,45,0.00,,,0.00,VWS V14.00,2014-01-21 22:40:00,
2014-01-21 17:45:00,3.6,-13.0,29.21,North,0,0.0,5.4,45,0.00,,,0.00,VWS V14.00,2014-01-21 22:45:00,
2014-01-21 17:50:00,3.2,-13.3,29.21,North,353,3.1,5.4,45,0.00,,,0.00,VWS V14.00,2014-01-21 22:50:00,
2014-01-21 17:55:00,2.8,-13.7,29.21,NNW,327,0.0,5.4,45,0.00,,,0.00,VWS V14.00,2014-01-21 22:55:00,
2014-01-21 18:00:00,2.7,-13.8,29.21,NNW,344,0.0,5.4,45,0.00,,,0.00,VWS V14.00,2014-01-21 23:00:00,
2014-01-21 18:05:00,2.8,-13.7,29.21,North,7,0.0,5.4,45,0.00,,,0.00,VWS V14.00,2014-01-21 23:05:00,
2014-01-21 18:10:00,2.7,-13.8,29.21,NW,317,0.0,5.4,45,0.00,,,0.00,VWS V14.00,2014-01-21 23:10:00,
2014-01-21 18:15:00,2.3,-14.2,29.21,NW,317,0.0,5.4,45,0.00,,,0.00,VWS V14.00,2014-01-21 23:15:00,
2014-01-21 18:20:00,1.8,-14.7,29.21,NW,316,0.0,5.4,45,0.00,,,0.00,VWS V14.00,2014-01-21 23:20:00,
2014-01-21 18:25:00,1.4,-15.0,29.21,NW,317,0.0,5.4,45,0.00,,,0.00,VWS V14.00,2014-01-21 23:25:00,
2014-01-21 18:30:00,0.9,-15.5,29.21,NW,316,0.0,5.4,45,0.00,,,0.00,VWS V14.00,2014-01-21 23:30:00,
2014-01-21 18:35:00,0.7,-15.7,29.21,NW,316,0.0,0.0,45,0.00,,,0.00,VWS V14.00,2014-01-21 23:35:00,
2014-01-21 18:40:00,0.3,-16.0,29.21,NW,317,0.0,0.0,45,0.00,,,0.00,VWS V14.00,2014-01-21 23:40:00,
2014-01-21 18:45:00,0.1,-16.2,29.21,NW,317,0.0,0.0,45,0.00,,,0.00,VWS V14.00,2014-01-21 23:45:00,
2014-01-21 18:50:00,-0.2,-16.5,29.21,NW,317,0.0,0.0,45,0.00,,,0.00,VWS V14.00,2014-01-21 23:50:00,
2014-01-21 18:55:00,-0.2,-16.5,29.21,NW,317,0.0,0.0,45,0.00,,,0.00,VWS V14.00,2014-01-21 23:55:00,
2014-01-21 19:00:00,-0.6,-16.8,29.21,NW,317,0.0,0.0,45,0.00,,,0.00,VWS V14.00,2014-01-22 00:00:00,
2014-01-21 19:05:00,-0.8,-17.0,29.21,NW,317,0.0,0.0,45,0.00,,,0.00,VWS V14.00,2014-01-22 00:05:00,
2014-01-21 19:10:00,-1.1,-17.3,29.21,NW,317,0.0,0.0,45,0.00,,,0.00,VWS V14.00,2014-01-22 00:10:00,
2014-01-21 19:15:00,-1.3,-17.5,29.21,NW,317,0.0,0.0,45,0.00,,,0.00,VWS V14.00,2014-01-22 00:15:00,
2014-01-21 19:20:00,-1.7,-17.8,29.21,NW,317,0.0,0.0,45,0.00,,,0.00,VWS V14.00,2014-01-22 00:20:00,
2014-01-21 19:25:00,-1.7,-17.8,29.21,NW,316,0.0,0.0,45,0.00,,,0.00,VWS V14.00,2014-01-22 00:25:00,
2014-01-21 19:30:00,-1.8,-18.0,29.21,NW,317,0.0,0.0,45,0.00,,,0.00,VWS V14.00,2014-01-22 00:30:00,
2014-01-21 19:35:00,-2.0,-18.1,29.21,NW,317,0.0,0.0,45,0.00,,,0.00,VWS V14.00,2014-01-22 00:35:00,
2014-01-21 19:40:00,-1.8,-18.0,29.21,NW,317,0.0,0.0,45,0.00,,,0.00,VWS V14.00,2014-01-22 00:40:00,
2014-01-21 19:45:00,-1.8,-18.0,29.21,NW,317,0.0,0.0,45,0.00,,,0.00,VWS V14.00,2014-01-22 00:45:00,
2014-01-21 19:50:00,-1.8,-18.0,29.21,NW,317,0.0,0.0,45,0.00,,,0.00,VWS V14.00,2014-01-22 00:50:00,
2014-01-21 19:55:00,-2.2,-18.3,29.21,NW,317,0.0,0.0,45,0.00,,,0.00,VWS V14.00,2014-01-22 00:55:00,
2014-01-21 20:00:00,-2.4,-18.5,29.21,NW,317,0.0,0.0,45,0.00,,,0.00,VWS V14.00,2014-01-22 01:00:00,
2014-01-21 20:05:00,-2.4,-18.5,29.21,NW,316,0.0,0.0,45,0.00,,,0.00,VWS V14.00,2014-01-22 01:05:00,
2014-01-21 20:10:00,-2.4,-18.5,29.21,NW,317,0.0,0.0,45,0.00,,,0.00,VWS V14.00,2014-01-22 01:10:00,
2014-01-21 20:15:00,-2.6,-18.6,29.21,NW,317,0.0,0.0,45,0.00,,,0.00,VWS V14.00,2014-01-22 01:15:00,
2014-01-21 20:20:00,-2.7,-18.8,29.21,NW,316,0.0,0.0,45,0.00,,,0.00,VWS V14.00,2014-01-22 01:20:00,
2014-01-21 20:25:00,-3.1,-19.1,29.21,NW,317,0.0,0.0,45,0.00,,,0.00,VWS V14.00,2014-01-22 01:25:00,
2014-01-21 20:30:00,-3.5,-19.5,29.21,NW,316,0.0,0.0,45,0.00,,,0.00,VWS V14.00,2014-01-22 01:30:00,
2014-01-21 20:35:00,-3.6,-19.6,29.21,NW,317,0.0,0.0,45,0.00,,,0.00,VWS V14.00,2014-01-22 01:35:00,
2014-01-21 20:40:00,-3.6,-19.6,29.21,NW,316,0.0,0.0,45,0.00,,,0.00,VWS V14.00,2014-01-22 01:40:00,
2014-01-21 20:45:00,-3.8,-19.8,29.21,NW,317,0.0,0.0,45,0.00,,,0.00,VWS V14.00,2014-01-22 01:45:00,
2014-01-21 20:50:00,-4.2,-20.1,29.21,NW,317,0.0,0.0,45,0.00,,,0.00,VWS V14.00,2014-01-22 01:50:00,
2014-01-21 20:55:00,-4.4,-20.3,29.21,NW,317,0.0,0.0,45,0.00,,,0.00,VWS V14.00,2014-01-22 01:55:00,
2014-01-21 21:00:00,-4.4,-20.3,29.18,NW,316,0.0,0.0,45,0.00,,,0.00,VWS V14.00,2014-01-22 02:00:00,
2014-01-21 21:05:00,-4.4,-20.3,29.18,NW,317,0.0,0.0,45,0.00,,,0.00,VWS V14.00,2014-01-22 02:05:00,
2014-01-21 21:10:00,-4.7,-20.6,29.18,NW,316,0.0,0.0,45,0.00,,,0.00,VWS V14.00,2014-01-22 02:10:00,
2014-01-21 21:15:00,-4.7,-20.6,29.18,NW,317,0.0,0.0,45,0.00,,,0.00,VWS V14.00,2014-01-22 02:15:00,
2014-01-21 21:20:00,-4.7,-20.6,29.18,NW,316,0.0,0.0,45,0.00,,,0.00,VWS V14.00,2014-01-22 02:20:00,
2014-01-21 21:25:00,-4.0,-20.0,29.18,NW,317,0.0,0.0,45,0.00,,,0.00,VWS V14.00,2014-01-22 02:25:00,
2014-01-21 21:30:00,-4.0,-20.0,29.18,NW,317,0.0,0.0,45,0.00,,,0.00,VWS V14.00,2014-01-22 02:30:00,
2014-01-21 21:35:00,-4.2,-20.1,29.18,NW,317,0.0,0.0,45,0.00,,,0.00,VWS V14.00,2014-01-22 02:35:00,
2014-01-21 21:40:00,-4.2,-20.1,29.18,NW,317,0.0,0.0,45,0.00,,,0.00,VWS V14.00,2014-01-22 02:40:00,
2014-01-21 21:45:00,-4.4,-20.3,29.18,NW,317,0.0,0.0,45,0.00,,,0.00,VWS V14.00,2014-01-22 02:45:00,
2014-01-21 21:50:00,-4.7,-20.6,29.18,NW,316,0.0,0.0,45,0.00,,,0.00,VWS V14.00,2014-01-22 02:50:00,
2014-01-21 21:55:00,-5.1,-21.0,29.18,NW,317,0.0,0.0,45,0.00,,,0.00,VWS V14.00,2014-01-22 02:55:00,
2014-01-21 22:00:00,-4.7,-20.6,29.18,NW,317,0.0,0.0,45,0.00,,,0.00,VWS V14.00,2014-01-22 03:00:00,
2014-01-21 22:05:00,-4.7,-20.6,29.18,NW,317,0.0,0.0,45,0.00,,,0.00,VWS V14.00,2014-01-22 03:05:00,
2014-01-21 22:11:00,-4.7,-20.6,29.18,NW,317,0.0,0.0,45,0.00,,,0.00,VWS V14.00,2014-01-22 03:11:00,
2014-01-21 22:16:00,-4.7,-20.6,29.18,NW,316,0.0,0.0,45,0.00,,,0.00,VWS V14.00,2014-01-22 03:16:00,
2014-01-21 22:21:00,-5.1,-21.0,29.18,NW,317,0.0,0.0,45,0.00,,,0.00,VWS V14.00,2014-01-22 03:21:00,
2014-01-21 22:26:00,-5.8,-21.6,29.18,NW,316,0.0,0.0,45,0.00,,,0.00,VWS V14.00,2014-01-22 03:26:00,
2014-01-21 22:30:00,-5.6,-21.5,29.18,NW,317,0.0,0.0,45,0.00,,,0.00,VWS V14.00,2014-01-22 03:30:00,
2014-01-21 22:31:00,-5.8,-21.6,29.18,NW,317,0.0,0.0,45,0.00,,,0.00,VWS V14.00,2014-01-22 03:31:00,
2014-01-21 22:36:00,-6.2,-22.0,29.18,NW,317,0.0,0.0,45,0.00,,,0.00,VWS V14.00,2014-01-22 03:36:00,
2014-01-21 22:41:00,-6.5,-22.3,29.18,NW,317,0.0,0.0,45,0.00,,,0.00,VWS V14.00,2014-01-22 03:41:00,
2014-01-21 22:46:00,-7.1,-22.8,29.18,NW,317,0.0,0.0,45,0.00,,,0.00,VWS V14.00,2014-01-22 03:46:00,
2014-01-21 22:51:00,-7.1,-22.8,29.18,NW,317,0.0,0.0,45,0.00,,,0.00,VWS V14.00,2014-01-22 03:51:00,
2014-01-21 22:56:00,-7.1,-22.8,29.18,NW,317,0.0,0.0,45,0.00,,,0.00,VWS V14.00,2014-01-22 03:56:00,
2014-01-21 23:00:00,-7.4,-23.1,29.18,NW,317,0.0,0.0,45,0.00,,,0.00,VWS V14.00,2014-01-22 04:00:00,
2014-01-21 23:01:00,-7.6,-23.3,29.18,NW,317,0.0,0.0,45,0.00,,,0.00,VWS V14.00,2014-01-22 04:01:00,
2014-01-21 23:06:00,-7.4,-23.1,29.18,NW,317,0.0,0.0,45,0.00,,,0.00,VWS V14.00,2014-01-22 04:06:00,
2014-01-21 23:11:00,-8.0,-23.6,29.18,NW,317,0.0,0.0,45,0.00,,,0.00,VWS V14.00,2014-01-22 04:11:00,
2014-01-21 23:16:00,-8.1,-23.8,29.18,NW,317,0.0,0.0,45,0.00,,,0.00,VWS V14.00,2014-01-22 04:16:00,
2014-01-21 23:21:00,-8.9,-24.5,29.18,NW,316,0.0,0.0,45,0.00,,,0.00,VWS V14.00,2014-01-22 04:21:00,
2014-01-21 23:26:00,-9.4,-25.0,29.18,NW,317,0.0,0.0,45,0.00,,,0.00,VWS V14.00,2014-01-22 04:26:00,
2014-01-21 23:30:00,-9.8,-25.3,29.18,NW,316,0.0,0.0,45,0.00,,,0.00,VWS V14.00,2014-01-22 04:30:00,
2014-01-21 23:31:00,-9.8,-25.3,29.18,NW,317,0.0,0.0,45,0.00,,,0.00,VWS V14.00,2014-01-22 04:31:00,
2014-01-21 23:36:00,-9.9,-25.5,29.18,NW,317,0.0,0.0,45,0.00,,,0.00,VWS V14.00,2014-01-22 04:36:00,
2014-01-21 23:41:00,-9.6,-25.1,29.18,NW,317,0.0,0.0,45,0.00,,,0.00,VWS V14.00,2014-01-22 04:41:00,
2014-01-21 23:46:00,-9.6,-25.1,29.18,NW,317,0.0,0.0,45,0.00,,,0.00,VWS V14.00,2014-01-22 04:46:00,
2014-01-21 23:51:00,-10.3,-25.8,29.18,NW,317,0.0,0.0,45,0.00,,,0.00,VWS V14.00,2014-01-22 04:51:00,
2014-01-21 23:56:00,-9.8,-25.3,29.18,NW,316,0.0,0.0,45,0.00,,,0.00,VWS V14.00,2014-01-22 04:56:00,